sensor_id;sensor_type;location;lat;lon;timestamp;P1;durP1;ratioP1;P2;durP2;ratioP2
60060;SDS011;45933;51.336;12.612;2024-02-28T00:01:25;33.50;;;19.80;;
60060;SDS011;45933;51.336;12.612;2024-02-28T00:03:51;33.87;;;19.77;;
60060;SDS011;45933;51.336;12.612;2024-02-28T00:06:17;35.97;;;20.27;;
60060;SDS011;45933;51.336;12.612;2024-02-28T00:08:43;33.17;;;19.27;;
60060;SDS011;45933;51.336;12.612;2024-02-28T00:11:09;38.83;;;21.27;;
60060;SDS011;45933;51.336;12.612;2024-02-28T00:13:34;33.63;;;20.17;;
60060;SDS011;45933;51.336;12.612;2024-02-28T00:15:59;35.90;;;20.43;;
60060;SDS011;45933;51.336;12.612;2024-02-28T00:18:25;40.17;;;19.70;;
60060;SDS011;45933;51.336;12.612;2024-02-28T00:20:50;39.90;;;20.70;;
60060;SDS011;45933;51.336;12.612;2024-02-28T00:23:15;40.57;;;21.07;;
60060;SDS011;45933;51.336;12.612;2024-02-28T00:25:40;39.07;;;20.60;;
60060;SDS011;45933;51.336;12.612;2024-02-28T00:28:06;40.90;;;20.50;;
60060;SDS011;45933;51.336;12.612;2024-02-28T00:30:31;44.97;;;22.17;;
60060;SDS011;45933;51.336;12.612;2024-02-28T00:32:57;43.40;;;20.80;;
60060;SDS011;45933;51.336;12.612;2024-02-28T00:35:23;38.57;;;21.07;;
60060;SDS011;45933;51.336;12.612;2024-02-28T00:37:48;42.00;;;21.27;;
60060;SDS011;45933;51.336;12.612;2024-02-28T00:40:13;42.13;;;20.67;;
60060;SDS011;45933;51.336;12.612;2024-02-28T00:42:38;45.23;;;20.63;;
60060;SDS011;45933;51.336;12.612;2024-02-28T00:45:04;47.33;;;22.57;;
60060;SDS011;45933;51.336;12.612;2024-02-28T00:47:29;38.57;;;20.30;;
60060;SDS011;45933;51.336;12.612;2024-02-28T00:49:54;40.30;;;20.80;;
60060;SDS011;45933;51.336;12.612;2024-02-28T00:52:20;34.70;;;18.60;;
60060;SDS011;45933;51.336;12.612;2024-02-28T00:54:45;35.00;;;18.23;;
60060;SDS011;45933;51.336;12.612;2024-02-28T00:57:10;39.27;;;18.97;;
60060;SDS011;45933;51.336;12.612;2024-02-28T00:59:35;36.70;;;18.80;;
60060;SDS011;45933;51.336;12.612;2024-02-28T01:02:01;46.17;;;20.67;;
60060;SDS011;45933;51.336;12.612;2024-02-28T01:04:28;37.90;;;19.43;;
60060;SDS011;45933;51.336;12.612;2024-02-28T01:06:53;41.33;;;19.27;;
60060;SDS011;45933;51.336;12.612;2024-02-28T01:09:18;42.43;;;19.97;;
60060;SDS011;45933;51.336;12.612;2024-02-28T01:11:44;41.77;;;19.40;;
60060;SDS011;45933;51.336;12.612;2024-02-28T01:14:09;41.47;;;20.27;;
60060;SDS011;45933;51.336;12.612;2024-02-28T01:16:34;38.50;;;19.73;;
60060;SDS011;45933;51.336;12.612;2024-02-28T01:18:59;38.90;;;18.70;;
60060;SDS011;45933;51.336;12.612;2024-02-28T01:21:25;37.50;;;18.13;;
60060;SDS011;45933;51.336;12.612;2024-02-28T01:23:51;33.33;;;16.47;;
60060;SDS011;45933;51.336;12.612;2024-02-28T01:26:16;38.87;;;17.77;;
60060;SDS011;45933;51.336;12.612;2024-02-28T01:28:42;33.17;;;17.90;;
60060;SDS011;45933;51.336;12.612;2024-02-28T01:31:08;33.73;;;17.57;;
60060;SDS011;45933;51.336;12.612;2024-02-28T01:33:33;34.27;;;16.60;;
60060;SDS011;45933;51.336;12.612;2024-02-28T01:35:58;30.13;;;16.90;;
60060;SDS011;45933;51.336;12.612;2024-02-28T01:38:23;32.97;;;16.10;;
60060;SDS011;45933;51.336;12.612;2024-02-28T01:40:49;34.57;;;15.77;;
60060;SDS011;45933;51.336;12.612;2024-02-28T01:43:14;32.70;;;15.63;;
60060;SDS011;45933;51.336;12.612;2024-02-28T01:45:39;32.33;;;16.70;;
60060;SDS011;45933;51.336;12.612;2024-02-28T01:48:09;30.97;;;16.40;;
60060;SDS011;45933;51.336;12.612;2024-02-28T01:50:35;34.03;;;15.97;;
60060;SDS011;45933;51.336;12.612;2024-02-28T01:53:02;33.07;;;15.93;;
60060;SDS011;45933;51.336;12.612;2024-02-28T01:55:28;32.83;;;16.03;;
60060;SDS011;45933;51.336;12.612;2024-02-28T01:57:54;28.67;;;15.57;;
60060;SDS011;45933;51.336;12.612;2024-02-28T02:00:20;30.73;;;15.43;;
60060;SDS011;45933;51.336;12.612;2024-02-28T02:02:46;31.40;;;16.27;;
60060;SDS011;45933;51.336;12.612;2024-02-28T02:05:12;33.47;;;15.93;;
60060;SDS011;45933;51.336;12.612;2024-02-28T02:07:37;30.77;;;15.27;;
60060;SDS011;45933;51.336;12.612;2024-02-28T02:10:04;28.20;;;14.70;;
60060;SDS011;45933;51.336;12.612;2024-02-28T02:12:33;30.73;;;15.40;;
60060;SDS011;45933;51.336;12.612;2024-02-28T02:14:58;30.87;;;16.60;;
60060;SDS011;45933;51.336;12.612;2024-02-28T02:17:23;28.07;;;15.50;;
60060;SDS011;45933;51.336;12.612;2024-02-28T02:19:49;29.17;;;16.10;;
60060;SDS011;45933;51.336;12.612;2024-02-28T02:22:14;32.17;;;15.83;;
60060;SDS011;45933;51.336;12.612;2024-02-28T02:24:41;30.60;;;15.83;;
60060;SDS011;45933;51.336;12.612;2024-02-28T02:27:06;32.83;;;16.87;;
60060;SDS011;45933;51.336;12.612;2024-02-28T02:29:31;33.97;;;17.27;;
60060;SDS011;45933;51.336;12.612;2024-02-28T02:31:57;32.40;;;15.70;;
60060;SDS011;45933;51.336;12.612;2024-02-28T02:34:22;32.87;;;16.37;;
60060;SDS011;45933;51.336;12.612;2024-02-28T02:36:47;35.20;;;16.77;;
60060;SDS011;45933;51.336;12.612;2024-02-28T02:39:13;34.70;;;16.97;;
60060;SDS011;45933;51.336;12.612;2024-02-28T02:41:38;30.30;;;16.03;;
60060;SDS011;45933;51.336;12.612;2024-02-28T02:44:03;27.87;;;14.80;;
60060;SDS011;45933;51.336;12.612;2024-02-28T02:46:28;26.63;;;14.47;;
60060;SDS011;45933;51.336;12.612;2024-02-28T02:48:54;30.93;;;14.73;;
60060;SDS011;45933;51.336;12.612;2024-02-28T02:51:20;29.97;;;15.47;;
60060;SDS011;45933;51.336;12.612;2024-02-28T02:53:45;29.93;;;15.50;;
60060;SDS011;45933;51.336;12.612;2024-02-28T02:56:10;26.70;;;15.30;;
60060;SDS011;45933;51.336;12.612;2024-02-28T02:58:36;28.30;;;15.40;;
60060;SDS011;45933;51.336;12.612;2024-02-28T03:01:01;28.30;;;15.47;;
60060;SDS011;45933;51.336;12.612;2024-02-28T03:03:26;25.57;;;14.50;;
60060;SDS011;45933;51.336;12.612;2024-02-28T03:05:52;23.47;;;14.83;;
60060;SDS011;45933;51.336;12.612;2024-02-28T03:08:17;21.27;;;13.47;;
60060;SDS011;45933;51.336;12.612;2024-02-28T03:10:42;22.10;;;13.30;;
60060;SDS011;45933;51.336;12.612;2024-02-28T03:13:07;19.00;;;11.67;;
60060;SDS011;45933;51.336;12.612;2024-02-28T03:15:33;20.23;;;11.80;;
60060;SDS011;45933;51.336;12.612;2024-02-28T03:17:59;20.70;;;12.20;;
60060;SDS011;45933;51.336;12.612;2024-02-28T03:20:24;19.97;;;12.37;;
60060;SDS011;45933;51.336;12.612;2024-02-28T03:22:49;21.03;;;12.17;;
60060;SDS011;45933;51.336;12.612;2024-02-28T03:25:14;20.53;;;12.30;;
60060;SDS011;45933;51.336;12.612;2024-02-28T03:27:40;20.43;;;13.30;;
60060;SDS011;45933;51.336;12.612;2024-02-28T03:30:05;23.10;;;13.07;;
60060;SDS011;45933;51.336;12.612;2024-02-28T03:32:31;24.50;;;14.50;;
60060;SDS011;45933;51.336;12.612;2024-02-28T03:34:56;25.20;;;13.83;;
60060;SDS011;45933;51.336;12.612;2024-02-28T03:37:21;20.50;;;12.57;;
60060;SDS011;45933;51.336;12.612;2024-02-28T03:39:47;21.90;;;13.00;;
60060;SDS011;45933;51.336;12.612;2024-02-28T03:42:12;20.77;;;12.87;;
60060;SDS011;45933;51.336;12.612;2024-02-28T03:44:37;24.07;;;13.30;;
60060;SDS011;45933;51.336;12.612;2024-02-28T03:47:03;22.80;;;14.00;;
60060;SDS011;45933;51.336;12.612;2024-02-28T03:49:28;24.40;;;14.27;;
60060;SDS011;45933;51.336;12.612;2024-02-28T03:51:53;26.00;;;16.10;;
60060;SDS011;45933;51.336;12.612;2024-02-28T03:54:19;29.33;;;16.43;;
60060;SDS011;45933;51.336;12.612;2024-02-28T03:56:44;30.27;;;18.13;;
60060;SDS011;45933;51.336;12.612;2024-02-28T03:59:09;33.53;;;18.50;;
60060;SDS011;45933;51.336;12.612;2024-02-28T04:01:34;27.13;;;16.17;;
60060;SDS011;45933;51.336;12.612;2024-02-28T04:04:00;31.23;;;17.23;;
60060;SDS011;45933;51.336;12.612;2024-02-28T04:06:25;31.60;;;18.70;;
60060;SDS011;45933;51.336;12.612;2024-02-28T04:08:50;28.70;;;17.73;;
60060;SDS011;45933;51.336;12.612;2024-02-28T04:11:15;31.53;;;17.77;;
60060;SDS011;45933;51.336;12.612;2024-02-28T04:13:41;36.40;;;19.10;;
60060;SDS011;45933;51.336;12.612;2024-02-28T04:16:07;30.77;;;17.27;;
60060;SDS011;45933;51.336;12.612;2024-02-28T04:18:33;31.27;;;17.43;;
60060;SDS011;45933;51.336;12.612;2024-02-28T04:20:58;28.27;;;17.13;;
60060;SDS011;45933;51.336;12.612;2024-02-28T04:23:24;29.93;;;16.70;;
60060;SDS011;45933;51.336;12.612;2024-02-28T04:25:49;26.83;;;16.67;;
60060;SDS011;45933;51.336;12.612;2024-02-28T04:28:14;26.63;;;15.77;;
60060;SDS011;45933;51.336;12.612;2024-02-28T04:30:40;26.00;;;17.00;;
60060;SDS011;45933;51.336;12.612;2024-02-28T04:33:05;26.93;;;16.53;;
60060;SDS011;45933;51.336;12.612;2024-02-28T04:35:30;29.23;;;15.93;;
60060;SDS011;45933;51.336;12.612;2024-02-28T04:37:55;26.63;;;15.63;;
60060;SDS011;45933;51.336;12.612;2024-02-28T04:40:21;25.03;;;15.43;;
60060;SDS011;45933;51.336;12.612;2024-02-28T04:42:46;24.60;;;14.90;;
60060;SDS011;45933;51.336;12.612;2024-02-28T04:45:12;24.40;;;16.40;;
60060;SDS011;45933;51.336;12.612;2024-02-28T04:47:37;24.23;;;15.60;;
60060;SDS011;45933;51.336;12.612;2024-02-28T04:50:03;24.43;;;15.43;;
60060;SDS011;45933;51.336;12.612;2024-02-28T04:52:31;22.30;;;14.60;;
60060;SDS011;45933;51.336;12.612;2024-02-28T04:54:56;24.53;;;15.43;;
60060;SDS011;45933;51.336;12.612;2024-02-28T04:57:22;26.97;;;17.03;;
60060;SDS011;45933;51.336;12.612;2024-02-28T04:59:47;27.93;;;17.00;;
60060;SDS011;45933;51.336;12.612;2024-02-28T05:02:12;26.90;;;17.03;;
60060;SDS011;45933;51.336;12.612;2024-02-28T05:04:38;29.77;;;17.17;;
60060;SDS011;45933;51.336;12.612;2024-02-28T05:07:03;28.27;;;16.23;;
60060;SDS011;45933;51.336;12.612;2024-02-28T05:09:28;26.80;;;17.13;;
60060;SDS011;45933;51.336;12.612;2024-02-28T05:11:54;28.30;;;18.03;;
60060;SDS011;45933;51.336;12.612;2024-02-28T05:14:19;29.27;;;18.30;;
60060;SDS011;45933;51.336;12.612;2024-02-28T05:16:44;31.80;;;18.97;;
60060;SDS011;45933;51.336;12.612;2024-02-28T05:19:11;29.53;;;18.30;;
60060;SDS011;45933;51.336;12.612;2024-02-28T05:21:40;29.90;;;19.00;;
60060;SDS011;45933;51.336;12.612;2024-02-28T05:24:09;31.00;;;19.43;;
60060;SDS011;45933;51.336;12.612;2024-02-28T05:26:35;31.53;;;19.77;;
60060;SDS011;45933;51.336;12.612;2024-02-28T05:29:01;31.93;;;19.40;;
60060;SDS011;45933;51.336;12.612;2024-02-28T05:31:28;32.73;;;20.30;;
60060;SDS011;45933;51.336;12.612;2024-02-28T05:33:55;33.80;;;20.53;;
60060;SDS011;45933;51.336;12.612;2024-02-28T05:36:22;28.23;;;18.27;;
60060;SDS011;45933;51.336;12.612;2024-02-28T05:38:47;29.77;;;18.63;;
60060;SDS011;45933;51.336;12.612;2024-02-28T05:41:13;31.97;;;19.40;;
60060;SDS011;45933;51.336;12.612;2024-02-28T05:43:39;31.33;;;19.30;;
60060;SDS011;45933;51.336;12.612;2024-02-28T05:46:05;28.07;;;17.03;;
60060;SDS011;45933;51.336;12.612;2024-02-28T05:48:30;30.97;;;18.97;;
60060;SDS011;45933;51.336;12.612;2024-02-28T05:50:56;30.70;;;18.50;;
60060;SDS011;45933;51.336;12.612;2024-02-28T05:53:21;30.00;;;18.43;;
60060;SDS011;45933;51.336;12.612;2024-02-28T05:55:46;29.00;;;19.13;;
60060;SDS011;45933;51.336;12.612;2024-02-28T05:58:13;30.60;;;18.43;;
60060;SDS011;45933;51.336;12.612;2024-02-28T06:00:38;32.30;;;18.87;;
60060;SDS011;45933;51.336;12.612;2024-02-28T06:03:03;30.90;;;17.80;;
60060;SDS011;45933;51.336;12.612;2024-02-28T06:05:29;28.70;;;17.10;;
60060;SDS011;45933;51.336;12.612;2024-02-28T06:07:54;29.30;;;18.27;;
60060;SDS011;45933;51.336;12.612;2024-02-28T06:10:20;28.47;;;17.27;;
60060;SDS011;45933;51.336;12.612;2024-02-28T06:12:46;26.43;;;17.40;;
60060;SDS011;45933;51.336;12.612;2024-02-28T06:15:11;27.23;;;18.70;;
60060;SDS011;45933;51.336;12.612;2024-02-28T06:17:37;28.20;;;18.10;;
60060;SDS011;45933;51.336;12.612;2024-02-28T06:20:02;28.87;;;18.80;;
60060;SDS011;45933;51.336;12.612;2024-02-28T06:22:27;31.57;;;19.80;;
60060;SDS011;45933;51.336;12.612;2024-02-28T06:24:53;32.07;;;19.73;;
60060;SDS011;45933;51.336;12.612;2024-02-28T06:27:18;32.93;;;20.93;;
60060;SDS011;45933;51.336;12.612;2024-02-28T06:29:43;31.53;;;20.20;;
60060;SDS011;45933;51.336;12.612;2024-02-28T06:32:08;31.23;;;19.80;;
60060;SDS011;45933;51.336;12.612;2024-02-28T06:34:34;30.17;;;19.87;;
60060;SDS011;45933;51.336;12.612;2024-02-28T06:36:59;36.20;;;22.07;;
60060;SDS011;45933;51.336;12.612;2024-02-28T06:39:24;35.53;;;22.23;;
60060;SDS011;45933;51.336;12.612;2024-02-28T06:41:49;36.93;;;22.50;;
60060;SDS011;45933;51.336;12.612;2024-02-28T06:44:18;38.10;;;22.53;;
60060;SDS011;45933;51.336;12.612;2024-02-28T06:46:44;34.97;;;22.07;;
60060;SDS011;45933;51.336;12.612;2024-02-28T06:49:09;33.20;;;22.13;;
60060;SDS011;45933;51.336;12.612;2024-02-28T06:51:34;33.10;;;22.00;;
60060;SDS011;45933;51.336;12.612;2024-02-28T06:53:59;36.17;;;23.27;;
60060;SDS011;45933;51.336;12.612;2024-02-28T06:56:24;33.07;;;21.63;;
60060;SDS011;45933;51.336;12.612;2024-02-28T06:58:50;37.53;;;23.13;;
60060;SDS011;45933;51.336;12.612;2024-02-28T07:01:15;32.83;;;22.60;;
60060;SDS011;45933;51.336;12.612;2024-02-28T07:03:40;29.43;;;20.27;;
60060;SDS011;45933;51.336;12.612;2024-02-28T07:06:06;33.00;;;21.03;;
60060;SDS011;45933;51.336;12.612;2024-02-28T07:08:31;31.83;;;20.53;;
60060;SDS011;45933;51.336;12.612;2024-02-28T07:10:57;31.70;;;21.30;;
60060;SDS011;45933;51.336;12.612;2024-02-28T07:13:26;31.83;;;20.83;;
60060;SDS011;45933;51.336;12.612;2024-02-28T07:15:52;33.03;;;21.70;;
60060;SDS011;45933;51.336;12.612;2024-02-28T07:18:19;31.83;;;20.07;;
60060;SDS011;45933;51.336;12.612;2024-02-28T07:20:44;32.27;;;20.93;;
60060;SDS011;45933;51.336;12.612;2024-02-28T07:23:10;31.67;;;19.93;;
60060;SDS011;45933;51.336;12.612;2024-02-28T07:25:35;30.00;;;19.90;;
60060;SDS011;45933;51.336;12.612;2024-02-28T07:28:00;32.63;;;20.93;;
60060;SDS011;45933;51.336;12.612;2024-02-28T07:30:26;32.00;;;21.50;;
60060;SDS011;45933;51.336;12.612;2024-02-28T07:32:51;29.20;;;19.37;;
60060;SDS011;45933;51.336;12.612;2024-02-28T07:35:16;29.07;;;19.63;;
60060;SDS011;45933;51.336;12.612;2024-02-28T07:37:41;30.67;;;20.90;;
60060;SDS011;45933;51.336;12.612;2024-02-28T07:40:07;29.77;;;20.03;;
60060;SDS011;45933;51.336;12.612;2024-02-28T07:42:33;30.47;;;19.83;;
60060;SDS011;45933;51.336;12.612;2024-02-28T07:44:59;28.30;;;19.77;;
60060;SDS011;45933;51.336;12.612;2024-02-28T07:47:25;33.13;;;20.90;;
60060;SDS011;45933;51.336;12.612;2024-02-28T07:49:51;29.80;;;20.30;;
60060;SDS011;45933;51.336;12.612;2024-02-28T07:52:16;32.97;;;20.13;;
60060;SDS011;45933;51.336;12.612;2024-02-28T07:54:42;33.03;;;19.93;;
60060;SDS011;45933;51.336;12.612;2024-02-28T07:57:11;27.10;;;18.83;;
60060;SDS011;45933;51.336;12.612;2024-02-28T07:59:40;31.97;;;18.33;;
60060;SDS011;45933;51.336;12.612;2024-02-28T08:02:07;28.50;;;18.90;;
60060;SDS011;45933;51.336;12.612;2024-02-28T08:04:33;28.27;;;19.63;;
60060;SDS011;45933;51.336;12.612;2024-02-28T08:06:59;29.30;;;19.33;;
60060;SDS011;45933;51.336;12.612;2024-02-28T08:09:24;30.00;;;19.50;;
60060;SDS011;45933;51.336;12.612;2024-02-28T08:11:49;29.37;;;19.13;;
60060;SDS011;45933;51.336;12.612;2024-02-28T08:14:15;29.10;;;18.63;;
60060;SDS011;45933;51.336;12.612;2024-02-28T08:16:40;28.37;;;18.43;;
60060;SDS011;45933;51.336;12.612;2024-02-28T08:19:05;26.57;;;18.53;;
60060;SDS011;45933;51.336;12.612;2024-02-28T08:21:30;27.90;;;18.40;;
60060;SDS011;45933;51.336;12.612;2024-02-28T08:23:56;26.80;;;17.10;;
60060;SDS011;45933;51.336;12.612;2024-02-28T08:26:23;25.13;;;17.37;;
60060;SDS011;45933;51.336;12.612;2024-02-28T08:28:48;29.33;;;18.27;;
60060;SDS011;45933;51.336;12.612;2024-02-28T08:31:14;25.87;;;17.97;;
60060;SDS011;45933;51.336;12.612;2024-02-28T08:33:40;26.70;;;17.10;;
60060;SDS011;45933;51.336;12.612;2024-02-28T08:36:06;31.00;;;17.20;;
60060;SDS011;45933;51.336;12.612;2024-02-28T08:38:31;25.53;;;17.47;;
60060;SDS011;45933;51.336;12.612;2024-02-28T08:40:56;26.13;;;16.53;;
60060;SDS011;45933;51.336;12.612;2024-02-28T08:43:22;27.80;;;18.27;;
60060;SDS011;45933;51.336;12.612;2024-02-28T08:45:47;26.83;;;17.53;;
60060;SDS011;45933;51.336;12.612;2024-02-28T08:48:12;26.80;;;17.63;;
60060;SDS011;45933;51.336;12.612;2024-02-28T08:50:38;28.97;;;18.70;;
60060;SDS011;45933;51.336;12.612;2024-02-28T08:53:04;26.67;;;18.63;;
60060;SDS011;45933;51.336;12.612;2024-02-28T08:55:29;26.77;;;18.60;;
60060;SDS011;45933;51.336;12.612;2024-02-28T08:57:55;30.37;;;19.20;;
60060;SDS011;45933;51.336;12.612;2024-02-28T09:00:21;27.53;;;18.73;;
60060;SDS011;45933;51.336;12.612;2024-02-28T09:02:46;27.60;;;17.73;;
60060;SDS011;45933;51.336;12.612;2024-02-28T09:05:12;26.70;;;18.17;;
60060;SDS011;45933;51.336;12.612;2024-02-28T09:07:37;28.20;;;18.00;;
60060;SDS011;45933;51.336;12.612;2024-02-28T09:10:05;28.70;;;18.83;;
60060;SDS011;45933;51.336;12.612;2024-02-28T09:12:31;24.83;;;16.93;;
60060;SDS011;45933;51.336;12.612;2024-02-28T09:14:56;22.30;;;15.63;;
60060;SDS011;45933;51.336;12.612;2024-02-28T09:17:23;27.90;;;18.03;;
60060;SDS011;45933;51.336;12.612;2024-02-28T09:19:48;26.97;;;18.00;;
60060;SDS011;45933;51.336;12.612;2024-02-28T09:22:14;26.53;;;17.60;;
60060;SDS011;45933;51.336;12.612;2024-02-28T09:24:41;27.00;;;17.47;;
60060;SDS011;45933;51.336;12.612;2024-02-28T09:27:07;29.70;;;17.87;;
60060;SDS011;45933;51.336;12.612;2024-02-28T09:29:32;30.73;;;20.30;;
60060;SDS011;45933;51.336;12.612;2024-02-28T09:31:57;28.53;;;20.00;;
60060;SDS011;45933;51.336;12.612;2024-02-28T09:34:23;27.80;;;19.87;;
60060;SDS011;45933;51.336;12.612;2024-02-28T09:36:49;32.23;;;20.67;;
60060;SDS011;45933;51.336;12.612;2024-02-28T09:39:14;24.87;;;17.73;;
60060;SDS011;45933;51.336;12.612;2024-02-28T09:41:43;23.83;;;16.47;;
60060;SDS011;45933;51.336;12.612;2024-02-28T09:44:08;24.73;;;16.77;;
60060;SDS011;45933;51.336;12.612;2024-02-28T09:46:34;23.27;;;16.23;;
60060;SDS011;45933;51.336;12.612;2024-02-28T09:49:03;21.30;;;14.70;;
60060;SDS011;45933;51.336;12.612;2024-02-28T09:51:31;20.97;;;14.20;;
60060;SDS011;45933;51.336;12.612;2024-02-28T09:54:00;21.43;;;14.23;;
60060;SDS011;45933;51.336;12.612;2024-02-28T09:56:27;21.00;;;14.93;;
60060;SDS011;45933;51.336;12.612;2024-02-28T09:58:53;22.63;;;15.53;;
60060;SDS011;45933;51.336;12.612;2024-02-28T10:01:21;18.37;;;13.80;;
60060;SDS011;45933;51.336;12.612;2024-02-28T10:03:47;21.73;;;14.90;;
60060;SDS011;45933;51.336;12.612;2024-02-28T10:06:15;22.43;;;15.83;;
60060;SDS011;45933;51.336;12.612;2024-02-28T10:08:41;19.73;;;14.77;;
60060;SDS011;45933;51.336;12.612;2024-02-28T10:11:06;20.97;;;15.77;;
60060;SDS011;45933;51.336;12.612;2024-02-28T10:13:31;21.67;;;16.25;;
60060;SDS011;45933;51.336;12.612;2024-02-28T10:15:57;20.00;;;15.60;;
60060;SDS011;45933;51.336;12.612;2024-02-28T10:18:22;20.17;;;15.32;;
60060;SDS011;45933;51.336;12.612;2024-02-28T10:20:47;17.85;;;14.27;;
60060;SDS011;45933;51.336;12.612;2024-02-28T10:23:13;20.33;;;16.00;;
60060;SDS011;45933;51.336;12.612;2024-02-28T10:25:45;19.08;;;15.38;;
60060;SDS011;45933;51.336;12.612;2024-02-28T10:28:12;17.67;;;14.38;;
60060;SDS011;45933;51.336;12.612;2024-02-28T10:30:40;16.92;;;14.00;;
60060;SDS011;45933;51.336;12.612;2024-02-28T10:33:10;15.35;;;13.00;;
60060;SDS011;45933;51.336;12.612;2024-02-28T10:35:36;15.25;;;13.20;;
60060;SDS011;45933;51.336;12.612;2024-02-28T10:38:01;15.95;;;13.75;;
60060;SDS011;45933;51.336;12.612;2024-02-28T10:40:27;16.27;;;13.75;;
60060;SDS011;45933;51.336;12.612;2024-02-28T10:42:53;18.08;;;15.65;;
60060;SDS011;45933;51.336;12.612;2024-02-28T10:45:19;17.40;;;15.57;;
60060;SDS011;45933;51.336;12.612;2024-02-28T10:47:46;18.60;;;15.38;;
60060;SDS011;45933;51.336;12.612;2024-02-28T10:50:12;17.77;;;15.88;;
60060;SDS011;45933;51.336;12.612;2024-02-28T10:52:42;18.90;;;17.00;;
60060;SDS011;45933;51.336;12.612;2024-02-28T10:55:09;17.52;;;15.60;;
60060;SDS011;45933;51.336;12.612;2024-02-28T10:57:34;17.50;;;15.52;;
60060;SDS011;45933;51.336;12.612;2024-02-28T11:00:01;18.02;;;16.13;;
60060;SDS011;45933;51.336;12.612;2024-02-28T11:02:29;17.27;;;15.57;;
60060;SDS011;45933;51.336;12.612;2024-02-28T11:04:56;18.65;;;16.75;;
60060;SDS011;45933;51.336;12.612;2024-02-28T11:07:23;18.73;;;16.73;;
60060;SDS011;45933;51.336;12.612;2024-02-28T11:09:53;17.00;;;15.20;;
60060;SDS011;45933;51.336;12.612;2024-02-28T11:12:28;17.52;;;15.60;;
60060;SDS011;45933;51.336;12.612;2024-02-28T11:14:58;15.23;;;13.57;;
60060;SDS011;45933;51.336;12.612;2024-02-28T11:17:27;14.63;;;13.13;;
60060;SDS011;45933;51.336;12.612;2024-02-28T11:19:54;15.43;;;13.82;;
60060;SDS011;45933;51.336;12.612;2024-02-28T11:22:19;17.85;;;15.98;;
60060;SDS011;45933;51.336;12.612;2024-02-28T11:24:48;16.58;;;14.88;;
60060;SDS011;45933;51.336;12.612;2024-02-28T11:27:15;19.80;;;17.70;;
60060;SDS011;45933;51.336;12.612;2024-02-28T11:29:41;19.83;;;17.92;;
60060;SDS011;45933;51.336;12.612;2024-02-28T11:32:07;18.63;;;16.83;;
60060;SDS011;45933;51.336;12.612;2024-02-28T11:34:33;19.77;;;17.75;;
60060;SDS011;45933;51.336;12.612;2024-02-28T11:36:59;19.45;;;17.55;;
60060;SDS011;45933;51.336;12.612;2024-02-28T11:39:24;20.20;;;18.17;;
60060;SDS011;45933;51.336;12.612;2024-02-28T11:41:51;19.42;;;17.48;;
60060;SDS011;45933;51.336;12.612;2024-02-28T11:44:16;19.35;;;17.25;;
60060;SDS011;45933;51.336;12.612;2024-02-28T11:46:43;18.60;;;16.80;;
60060;SDS011;45933;51.336;12.612;2024-02-28T11:49:12;19.85;;;17.75;;
60060;SDS011;45933;51.336;12.612;2024-02-28T11:51:42;19.85;;;17.85;;
60060;SDS011;45933;51.336;12.612;2024-02-28T11:54:08;18.83;;;16.83;;
60060;SDS011;45933;51.336;12.612;2024-02-28T11:56:35;20.70;;;18.50;;
60060;SDS011;45933;51.336;12.612;2024-02-28T11:59:01;19.35;;;17.45;;
60060;SDS011;45933;51.336;12.612;2024-02-28T12:01:33;20.75;;;18.65;;
60060;SDS011;45933;51.336;12.612;2024-02-28T12:03:59;20.88;;;18.67;;
60060;SDS011;45933;51.336;12.612;2024-02-28T12:06:24;19.80;;;17.90;;
60060;SDS011;45933;51.336;12.612;2024-02-28T12:08:50;19.95;;;17.98;;
60060;SDS011;45933;51.336;12.612;2024-02-28T12:11:15;19.83;;;16.92;;
60060;SDS011;45933;51.336;12.612;2024-02-28T12:13:40;20.20;;;18.17;;
60060;SDS011;45933;51.336;12.612;2024-02-28T12:16:06;19.65;;;17.75;;
60060;SDS011;45933;51.336;12.612;2024-02-28T12:18:33;20.00;;;18.00;;
60060;SDS011;45933;51.336;12.612;2024-02-28T12:20:59;21.00;;;18.90;;
60060;SDS011;45933;51.336;12.612;2024-02-28T12:23:24;19.98;;;18.00;;
60060;SDS011;45933;51.336;12.612;2024-02-28T12:25:50;20.95;;;18.85;;
60060;SDS011;45933;51.336;12.612;2024-02-28T12:28:15;21.80;;;19.63;;
60060;SDS011;45933;51.336;12.612;2024-02-28T12:30:41;22.63;;;20.33;;
60060;SDS011;45933;51.336;12.612;2024-02-28T12:33:07;21.30;;;19.20;;
60060;SDS011;45933;51.336;12.612;2024-02-28T12:35:32;21.00;;;18.85;;
60060;SDS011;45933;51.336;12.612;2024-02-28T12:37:57;21.30;;;19.23;;
60060;SDS011;45933;51.336;12.612;2024-02-28T12:40:23;19.95;;;17.98;;
60060;SDS011;45933;51.336;12.612;2024-02-28T12:42:50;19.92;;;17.92;;
60060;SDS011;45933;51.336;12.612;2024-02-28T12:45:15;21.95;;;19.88;;
60060;SDS011;45933;51.336;12.612;2024-02-28T12:47:40;20.33;;;18.27;;
60060;SDS011;45933;51.336;12.612;2024-02-28T12:50:06;20.38;;;17.92;;
60060;SDS011;45933;51.336;12.612;2024-02-28T12:52:33;19.13;;;17.10;;
60060;SDS011;45933;51.336;12.612;2024-02-28T12:54:58;20.25;;;18.08;;
60060;SDS011;45933;51.336;12.612;2024-02-28T12:57:24;17.75;;;15.95;;
60060;SDS011;45933;51.336;12.612;2024-02-28T12:59:49;18.23;;;16.42;;
60060;SDS011;45933;51.336;12.612;2024-02-28T13:02:15;19.27;;;17.38;;
60060;SDS011;45933;51.336;12.612;2024-02-28T13:04:42;17.73;;;16.02;;
60060;SDS011;45933;51.336;12.612;2024-02-28T13:07:07;18.65;;;16.67;;
60060;SDS011;45933;51.336;12.612;2024-02-28T13:09:33;18.73;;;16.83;;
60060;SDS011;45933;51.336;12.612;2024-02-28T13:11:58;19.17;;;16.98;;
60060;SDS011;45933;51.336;12.612;2024-02-28T13:14:23;19.02;;;17.02;;
60060;SDS011;45933;51.336;12.612;2024-02-28T13:16:48;17.60;;;15.77;;
60060;SDS011;45933;51.336;12.612;2024-02-28T13:19:15;18.27;;;16.38;;
60060;SDS011;45933;51.336;12.612;2024-02-28T13:21:40;19.42;;;17.45;;
60060;SDS011;45933;51.336;12.612;2024-02-28T13:24:05;19.15;;;17.25;;
60060;SDS011;45933;51.336;12.612;2024-02-28T13:26:31;19.35;;;16.88;;
60060;SDS011;45933;51.336;12.612;2024-02-28T13:28:56;17.90;;;16.00;;
60060;SDS011;45933;51.336;12.612;2024-02-28T13:31:21;18.05;;;16.08;;
60060;SDS011;45933;51.336;12.612;2024-02-28T13:33:47;17.80;;;15.88;;
60060;SDS011;45933;51.336;12.612;2024-02-28T13:36:13;17.67;;;15.75;;
60060;SDS011;45933;51.336;12.612;2024-02-28T13:38:38;17.17;;;15.38;;
60060;SDS011;45933;51.336;12.612;2024-02-28T13:41:03;16.85;;;15.13;;
60060;SDS011;45933;51.336;12.612;2024-02-28T13:43:29;16.52;;;14.10;;
60060;SDS011;45933;51.336;12.612;2024-02-28T13:45:54;15.23;;;13.70;;
60060;SDS011;45933;51.336;12.612;2024-02-28T13:48:25;16.83;;;14.75;;
60060;SDS011;45933;51.336;12.612;2024-02-28T13:50:52;17.15;;;14.30;;
60060;SDS011;45933;51.336;12.612;2024-02-28T13:53:17;17.13;;;15.32;;
60060;SDS011;45933;51.336;12.612;2024-02-28T13:55:43;14.60;;;13.15;;
60060;SDS011;45933;51.336;12.612;2024-02-28T13:58:10;18.60;;;14.88;;
60060;SDS011;45933;51.336;12.612;2024-02-28T14:00:36;16.88;;;14.77;;